Time;durP1;ratioP1;P1;durP2;ratioP2;P2;SDS_P1;SDS_P2;PMS_P1;PMS_P2;Temp;Humidity;BMP_temperature;BMP_pressure;BME280_temperature;BME280_humidity;BME280_pressure;Samples;Min_cycle;Max_cycle;Signal;HPM_P1;HPM_P2
2022/05/24 00:00:38;;;;;;;;;;;;;;;25.03;58.49;97981.22;2070285;28;19925;-47
2022/05/24 00:01:41;;;;;;;;;;;;;;;25.00;58.28;97977.13;2072192;28;20405;-45
2022/05/24 00:02:42;;;;;;;;;;;;;;;24.99;58.15;97983.66;2072492;28;19925;-47
2022/05/24 00:03:43;;;;;;;;;;;;;;;24.99;58.22;97978.22;2071752;28;19929;-46
2022/05/24 00:04:44;;;;;;;;;;;;;;;25.01;58.43;97980.66;2072134;28;19929;-47
2022/05/24 00:05:45;;;;;;;;;;;;;;;25.02;58.42;97975.00;2070850;28;19929;-47
2022/05/24 00:06:47;;;;;;;;;;;;;;;25.04;58.27;97978.22;2072505;28;20283;-47
2022/05/24 00:07:49;;;;;;;;;;;;;;;25.01;58.29;97970.63;2071879;28;19980;-46
2022/05/24 00:08:49;;;;;;;;;;;;;;;25.00;58.43;97974.41;2072395;28;19929;-46
2022/05/24 00:09:51;;;;;;;;;;;;;;;25.02;58.30;97971.44;2071505;28;20447;-46
2022/05/24 00:10:53;;;;;;;;;;;;;;;25.02;58.22;97972.28;2070150;28;20003;-47
2022/05/24 00:11:54;;;;;;;;;;;;;;;25.02;58.38;97976.84;2072222;28;19979;-47
2022/05/24 00:12:55;;;;;;;;;;;;;;;25.02;58.25;97971.44;2069594;28;19940;-46
2022/05/24 00:13:57;;;;;;;;;;;;;;;25.00;58.59;97974.41;2066528;28;19929;-46
2022/05/24 00:16:19;;;;;;;;;;;;;;;24.99;58.09;97975.50;2072088;28;19933;-47
2022/05/24 00:17:20;;;;;;;;;;;;;;;25.01;58.48;97980.66;2072526;28;20505;-45
2022/05/24 00:18:23;;;;;;;;;;;;;;;24.98;58.70;97971.94;2071744;28;19929;-46
2022/05/24 00:19:23;;;;;;;;;;;;;;;24.98;58.53;97977.38;2071101;28;19985;-45
2022/05/24 00:20:26;;;;;;;;;;;;;;;24.98;58.38;97971.16;2068036;28;19925;-45
2022/05/24 00:21:27;;;;;;;;;;;;;;;24.98;58.35;97971.94;2068300;28;20623;-47
2022/05/24 00:22:30;;;;;;;;;;;;;;;25.00;58.66;97974.41;2071890;28;19940;-45
2022/05/24 00:23:32;;;;;;;;;;;;;;;25.00;58.40;97965.47;2071236;28;19932;-46
2022/05/24 00:24:33;;;;;;;;;;;;;;;24.98;58.56;97966.53;2070471;28;19929;-45
2022/05/24 00:25:35;;;;;;;;;;;;;;;24.97;58.62;97964.91;2072579;28;20404;-46
2022/05/24 00:26:35;;;;;;;;;;;;;;;24.98;58.25;97966.53;2069760;28;19936;-46
2022/05/24 00:27:37;;;;;;;;;;;;;;;24.99;58.34;97970.09;2071943;28;19935;-46
2022/05/24 00:28:38;;;;;;;;;;;;;;;24.97;58.30;97964.91;2067357;28;20332;-45
2022/05/24 00:29:39;;;;;;;;;;;;;;;24.98;58.46;97965.72;2066582;28;19925;-46
2022/05/24 00:30:41;;;;;;;;;;;;;;;24.97;58.65;97964.91;2070221;28;19929;-46
2022/05/24 00:31:42;;;;;;;;;;;;;;;24.99;58.48;97964.66;2069756;28;19936;-47
2022/05/24 00:32:44;;;;;;;;;;;;;;;24.97;58.81;97962.19;2070816;28;20350;-45
2022/05/24 00:33:45;;;;;;;;;;;;;;;24.96;58.43;97962.44;2072541;28;20647;-46
2022/05/24 00:34:46;;;;;;;;;;;;;;;24.96;58.55;97962.44;2073589;28;19936;-45
2022/05/24 00:35:48;;;;;;;;;;;;;;;24.99;58.48;97967.38;2074373;28;20577;-47
2022/05/24 00:36:49;;;;;;;;;;;;;;;24.99;58.72;97970.09;2073736;28;19930;-47
2022/05/24 00:37:52;;;;;;;;;;;;;;;24.98;58.71;97963.00;2073900;28;20833;-47
2022/05/24 00:38:52;;;;;;;;;;;;;;;24.99;58.62;97967.38;2072762;28;19929;-46
2022/05/24 00:39:54;;;;;;;;;;;;;;;24.98;58.51;97968.44;2071145;28;19944;-46
2022/05/24 00:41:02;;;;;;;;;;;;;;;24.98;58.69;97969.25;2070251;28;20677;-46
2022/05/24 00:42:06;;;;;;;;;;;;;;;24.99;58.41;97959.22;2071309;28;20318;-46
2022/05/24 00:43:10;;;;;;;;;;;;;;;24.97;58.80;97961.38;2070737;28;19929;-46
2022/05/24 00:44:16;;;;;;;;;;;;;;;24.96;58.43;97957.84;2069718;28;19925;-46
2022/05/24 00:45:20;;;;;;;;;;;;;;;24.98;58.46;97960.28;2069505;28;19936;-47
2022/05/24 00:46:23;;;;;;;;;;;;;;;24.98;58.70;97954.88;2072580;28;19925;-47
2022/05/24 00:47:30;;;;;;;;;;;;;;;25.00;58.45;97957.34;2071971;28;20410;-51
2022/05/24 00:48:35;;;;;;;;;;;;;;;24.97;58.57;97954.06;2072212;28;19975;-47
2022/05/24 00:49:39;;;;;;;;;;;;;;;24.96;58.49;97954.31;2072381;28;19960;-47
2022/05/24 00:50:43;;;;;;;;;;;;;;;24.96;58.80;97957.00;2073293;28;20052;-49
2022/05/24 00:51:47;;;;;;;;;;;;;;;24.96;58.81;97948.88;2072781;28;20387;-48
2022/05/24 00:52:52;;;;;;;;;;;;;;;24.96;58.31;97946.16;2070614;28;19936;-48
2022/05/24 00:53:55;;;;;;;;;;;;;;;24.96;58.55;97935.31;2072816;28;20490;-48
2022/05/24 00:54:56;;;;;;;;;;;;;;;24.98;58.61;97949.44;2072008;28;19929;-49
2022/05/24 00:56:02;;;;;;;;;;;;;;;24.97;58.58;97934.25;2072470;28;19932;-50
2022/05/24 00:57:07;;;;;;;;;;;;;;;24.96;58.44;97940.75;2073154;28;19963;-50
2022/05/24 00:58:10;;;;;;;;;;;;;;;24.97;58.67;97934.25;2070152;28;19940;-52
2022/05/24 00:59:20;;;;;;;;;;;;;;;24.97;58.49;97939.69;2069254;28;20067;-49
2022/05/24 01:00:23;;;;;;;;;;;;;;;24.95;58.54;97934.50;2069677;28;20586;-48
2022/05/24 01:01:27;;;;;;;;;;;;;;;24.95;58.32;97931.78;2070874;28;19969;-50
2022/05/24 01:02:29;;;;;;;;;;;;;;;24.96;58.73;97932.59;2070289;28;19933;-47
2022/05/24 01:03:29;;;;;;;;;;;;;;;24.96;58.62;97936.16;2072326;28;19929;-50
2022/05/24 01:04:31;;;;;;;;;;;;;;;24.95;58.41;97929.06;2071824;28;19929;-48
2022/05/24 01:05:32;;;;;;;;;;;;;;;24.94;58.59;97926.66;2073552;28;19933;-47
2022/05/24 01:06:34;;;;;;;;;;;;;;;24.96;58.68;97927.19;2072097;28;20375;-49
2022/05/24 01:07:36;;;;;;;;;;;;;;;24.95;58.58;97930.97;2072821;28;19929;-50
2022/05/24 01:08:37;;;;;;;;;;;;;;;24.94;58.61;97937.50;2072117;28;20008;-50
2022/05/24 01:09:44;;;;;;;;;;;;;;;24.94;58.62;97932.06;2070654;28;20917;-50
2022/05/24 01:10:48;;;;;;;;;;;;;;;24.94;58.69;97923.94;2071159;28;19936;-50
2022/05/24 01:11:51;;;;;;;;;;;;;;;24.94;58.52;97927.44;2072819;28;19925;-47
2022/05/24 01:12:54;;;;;;;;;;;;;;;24.94;58.80;97927.44;2071609;28;19961;-48
2022/05/24 01:13:57;;;;;;;;;;;;;;;24.95;58.56;97928.25;2069450;28;19932;-50
2022/05/24 01:15:00;;;;;;;;;;;;;;;24.94;58.61;97922.03;2070216;28;20453;-51
2022/05/24 01:16:01;;;;;;;;;;;;;;;24.96;58.59;97919.03;2070053;28;19929;-51
2022/05/24 01:17:03;;;;;;;;;;;;;;;24.95;58.41;97912.81;2071758;28;19936;-48
2022/05/24 01:18:04;;;;;;;;;;;;;;;24.94;58.79;97918.50;2071308;28;19932;-51
2022/05/24 01:19:10;;;;;;;;;;;;;;;24.94;58.85;97919.31;2070084;28;19929;-48
2022/05/24 01:20:11;;;;;;;;;;;;;;;24.95;58.52;97918.22;2072941;28;20456;-48
2022/05/24 01:21:16;;;;;;;;;;;;;;;24.94;58.38;97913.88;2072416;28;19933;-50
2022/05/24 01:22:36;;;;;;;;;;;;;;;24.95;58.68;97909.28;2073017;28;19999;-50
2022/05/24 01:23:43;;;;;;;;;;;;;;;24.95;58.91;97920.13;2072581;28;19953;-50
2022/05/24 01:24:49;;;;;;;;;;;;;;;24.94;58.65;97910.38;2071026;28;20442;-49
2022/05/24 01:25:57;;;;;;;;;;;;;;;24.94;58.55;97910.38;2071437;28;19975;-51
2022/05/24 01:26:59;;;;;;;;;;;;;;;24.94;58.43;97908.47;2070737;28;20047;-49
2022/05/24 01:28:01;;;;;;;;;;;;;;;24.93;58.62;97906.84;2071197;28;19929;-49
2022/05/24 01:29:05;;;;;;;;;;;;;;;24.94;58.72;97911.19;2069212;28;20627;-48
2022/05/24 01:30:07;;;;;;;;;;;;;;;24.95;58.60;97918.22;2070380;28;19928;-50
2022/05/24 01:31:08;;;;;;;;;;;;;;;24.95;58.68;97906.56;2070000;28;19930;-49
2022/05/24 01:36:11;;;;;;;;;;;;;;;24.94;58.62;97911.19;2072900;28;19933;-46
2022/05/24 01:37:12;;;;;;;;;;;;;;;24.93;58.78;97908.72;2072242;28;20494;-46
2022/05/24 01:38:16;;;;;;;;;;;;;;;24.93;58.85;97908.72;2069026;28;19940;-48
2022/05/24 01:39:17;;;;;;;;;;;;;;;24.93;58.47;97908.72;2070350;28;19982;-48
2022/05/24 01:40:18;;;;;;;;;;;;;;;24.93;58.66;97909.56;2072752;28;19929;-46
2022/05/24 01:41:21;;;;;;;;;;;;;;;24.94;58.44;97910.38;2073121;28;19929;-47
2022/05/24 01:42:23;;;;;;;;;;;;;;;24.92;58.62;97899.75;2071944;28;19929;-50
2022/05/24 01:43:26;;;;;;;;;;;;;;;24.92;58.59;97907.09;2072681;28;19972;-48
2022/05/24 01:44:37;;;;;;;;;;;;;;;24.91;58.72;97906.28;2069508;28;19925;-48
2022/05/24 01:45:39;;;;;;;;;;;;;;;24.92;58.62;97907.91;2068358;28;19929;-49
2022/05/24 01:46:43;;;;;;;;;;;;;;;24.92;58.60;97907.09;2069278;28;20800;-46
2022/05/24 01:47:45;;;;;;;;;;;;;;;24.92;58.93;97901.66;2072628;28;19968;-48
2022/05/24 01:48:49;;;;;;;;;;;;;;;24.92;58.58;97901.66;2073111;28;19968;-47
2022/05/24 01:49:53;;;;;;;;;;;;;;;24.91;58.85;97900.03;2072822;28;19929;-46
2022/05/24 01:50:55;;;;;;;;;;;;;;;24.91;58.83;97902.75;2072425;28;19936;-51
2022/05/24 01:51:58;;;;;;;;;;;;;;;24.91;58.84;97894.63;2071920;28;19929;-51
2022/05/24 01:53:03;;;;;;;;;;;;;;;24.92;58.83;97896.25;2071841;28;19930;-47
2022/05/24 01:54:05;;;;;;;;;;;;;;;24.92;58.76;97901.66;2072673;28;19941;-48
2022/05/24 01:55:08;;;;;;;;;;;;;;;24.90;58.69;97888.34;2071964;28;20497;-50
2022/05/24 01:56:12;;;;;;;;;;;;;;;24.90;58.77;97887.53;2070308;28;20268;-48
2022/05/24 01:57:15;;;;;;;;;;;;;;;24.90;59.04;97892.97;2072195;28;19925;-49
2022/05/24 01:58:20;;;;;;;;;;;;;;;24.91;58.70;97891.91;2071623;28;19929;-47
2022/05/24 01:59:23;;;;;;;;;;;;;;;24.92;58.87;97896.25;2069723;28;19955;-49
2022/05/24 02:00:24;;;;;;;;;;;;;;;24.91;58.72;97889.19;2069248;28;19933;-50
2022/05/24 02:01:30;;;;;;;;;;;;;;;24.90;58.61;97892.97;2071312;28;21867;-46
2022/05/24 02:02:32;;;;;;;;;;;;;;;24.91;58.80;97892.72;2071933;28;19925;-45
2022/05/24 02:03:32;;;;;;;;;;;;;;;24.89;58.72;97885.91;2071654;28;19936;-48
2022/05/24 02:04:34;;;;;;;;;;;;;;;24.91;58.52;97892.72;2070863;28;19925;-46
2022/05/24 02:05:36;;;;;;;;;;;;;;;24.92;58.70;97896.25;2072811;28;20812;-47
2022/05/24 02:06:38;;;;;;;;;;;;;;;24.90;58.81;97892.97;2071224;28;19932;-48
2022/05/24 02:07:39;;;;;;;;;;;;;;;24.90;58.64;97895.69;2071337;28;19956;-53
2022/05/24 02:08:41;;;;;;;;;;;;;;;24.90;58.77;97892.97;2071622;28;20736;-50
2022/05/24 02:09:44;;;;;;;;;;;;;;;24.89;58.53;97896.78;2072557;28;19933;-49
2022/05/24 02:10:46;;;;;;;;;;;;;;;24.88;58.46;97895.16;2071864;28;20013;-48
2022/05/24 02:11:48;;;;;;;;;;;;;;;24.89;58.75;97889.44;2072051;28;19929;-48
2022/05/24 02:12:51;;;;;;;;;;;;;;;24.89;58.66;97897.56;2071754;28;19952;-49
2022/05/24 02:13:56;;;;;;;;;;;;;;;24.90;58.87;97898.38;2070783;28;20619;-48
2022/05/24 02:14:59;;;;;;;;;;;;;;;24.90;58.61;97898.38;2068840;28;19929;-51
2022/05/24 02:16:03;;;;;;;;;;;;;;;24.89;58.85;97897.56;2071348;28;19929;-46
2022/05/24 02:17:06;;;;;;;;;;;;;;;24.91;58.91;97898.16;2070439;28;20031;-49
2022/05/24 02:18:09;;;;;;;;;;;;;;;24.88;58.55;97898.66;2072633;28;20024;-47
2022/05/24 02:19:09;;;;;;;;;;;;;;;24.89;58.64;97896.78;2068981;28;19929;-50
2022/05/24 02:20:12;;;;;;;;;;;;;;;24.88;58.51;97895.16;2072780;28;19983;-46
2022/05/24 02:21:13;;;;;;;;;;;;;;;24.87;58.76;97898.91;2070803;28;19933;-49
2022/05/24 02:22:17;;;;;;;;;;;;;;;24.87;58.71;97901.63;2071618;28;19925;-49
2022/05/24 02:23:18;;;;;;;;;;;;;;;24.87;58.94;97904.34;2071783;28;19936;-48
2022/05/24 02:24:22;;;;;;;;;;;;;;;24.88;58.87;97903.28;2071905;28;19933;-46
2022/05/24 02:25:25;;;;;;;;;;;;;;;24.88;58.83;97900.56;2072602;28;19975;-49
2022/05/24 02:26:28;;;;;;;;;;;;;;;24.86;58.72;97900.81;2072388;28;20502;-48
2022/05/24 02:27:29;;;;;;;;;;;;;;;24.86;58.57;97903.53;2071624;28;20275;-46
2022/05/24 02:28:32;;;;;;;;;;;;;;;24.87;58.95;97902.44;2072339;28;19952;-49
2022/05/24 02:29:35;;;;;;;;;;;;;;;24.87;58.89;97904.34;2069661;28;20403;-51
2022/05/24 02:30:36;;;;;;;;;;;;;;;24.86;58.89;97908.16;2070561;28;19960;-48
2022/05/24 02:31:38;;;;;;;;;;;;;;;24.87;58.82;97904.34;2069899;28;19930;-48
2022/05/24 02:32:38;;;;;;;;;;;;;;;24.87;58.81;97901.63;2072265;28;19932;-51
2022/05/24 02:33:40;;;;;;;;;;;;;;;24.86;58.82;97898.09;2072375;28;19940;-48
2022/05/24 02:34:40;;;;;;;;;;;;;;;24.86;58.91;97898.09;2071048;28;19983;-49
2022/05/24 02:35:42;;;;;;;;;;;;;;;24.85;58.76;97899.19;2068852;28;19948;-48
2022/05/24 02:36:42;;;;;;;;;;;;;;;24.86;58.96;97900.81;2070437;28;19972;-48
2022/05/24 02:37:44;;;;;;;;;;;;;;;24.86;58.84;97900.00;2067702;28;19934;-52
2022/05/24 02:38:45;;;;;;;;;;;;;;;24.84;58.98;97894.84;2069564;28;19933;-50
2022/05/24 02:42:24;;;;;;;;;;;;;;;24.86;59.03;97902.72;2071024;28;19937;-49
2022/05/24 02:43:25;;;;;;;;;;;;;;;24.83;59.07;97901.34;2072045;28;19929;-49
2022/05/24 02:44:27;;;;;;;;;;;;;;;24.86;58.84;97897.28;2072030;28;20379;-50
2022/05/24 02:45:29;;;;;;;;;;;;;;;24.84;58.71;97897.53;2069207;28;20455;-51
2022/05/24 02:46:32;;;;;;;;;;;;;;;24.84;58.79;97894.03;2068872;28;20761;-50
2022/05/24 02:47:32;;;;;;;;;;;;;;;24.84;58.91;97896.72;2069567;28;19941;-51
2022/05/24 02:48:34;;;;;;;;;;;;;;;24.83;58.79;97889.69;2070996;28;19968;-47
2022/05/24 02:49:36;;;;;;;;;;;;;;;24.85;59.00;97892.94;2072085;28;19972;-46
2022/05/24 02:50:36;;;;;;;;;;;;;;;24.84;58.62;97891.31;2072171;28;19956;-48
2022/05/24 02:51:39;;;;;;;;;;;;;;;24.84;58.78;97894.03;2070814;28;19973;-48
2022/05/24 02:52:40;;;;;;;;;;;;;;;24.82;58.84;97885.31;2067727;28;19937;-52
2022/05/24 02:53:43;;;;;;;;;;;;;;;24.83;58.84;97895.91;2071196;28;19933;-50
2022/05/24 02:54:43;;;;;;;;;;;;;;;24.84;59.07;97892.13;2068989;28;19933;-50
2022/05/24 02:55:45;;;;;;;;;;;;;;;24.84;59.07;97894.84;2071654;28;19928;-50
2022/05/24 02:56:46;;;;;;;;;;;;;;;24.84;58.81;97892.13;2071810;28;19929;-50
2022/05/24 02:57:47;;;;;;;;;;;;;;;24.83;58.69;97882.38;2071879;28;19929;-50
2022/05/24 02:58:49;;;;;;;;;;;;;;;24.83;59.00;97889.69;2071389;28;20020;-48
2022/05/24 02:59:50;;;;;;;;;;;;;;;24.82;58.82;97886.13;2072335;28;19930;-47
2022/05/24 03:00:53;;;;;;;;;;;;;;;24.83;58.72;97900.53;2067282;28;19935;-48
2022/05/24 03:01:53;;;;;;;;;;;;;;;24.82;58.79;97890.75;2070863;28;19945;-46
2022/05/24 03:02:55;;;;;;;;;;;;;;;24.81;58.97;97894.53;2070622;28;20679;-46
2022/05/24 03:03:56;;;;;;;;;;;;;;;24.80;58.92;97890.22;2069347;28;19929;-50
2022/05/24 03:05:00;;;;;;;;;;;;;;;24.80;59.14;97895.63;2071843;28;20000;-48
2022/05/24 03:06:00;;;;;;;;;;;;;;;24.82;59.31;97893.47;2072087;28;19929;-45
2022/05/24 03:09:40;;;;;;;;;;;;;;;24.81;58.76;97905.41;2073036;28;19925;-52
2022/05/24 03:10:41;;;;;;;;;;;;;;;24.82;58.94;97907.03;2071320;28;19926;-49
2022/05/24 03:14:22;;;;;;;;;;;;;;;24.83;58.98;97908.69;2071968;28;20024;-47
2022/05/24 03:15:23;;;;;;;;;;;;;;;24.82;58.84;97907.84;2070784;28;20449;-49
2022/05/24 03:16:26;;;;;;;;;;;;;;;24.81;58.95;97913.53;2069565;28;19964;-49
2022/05/24 03:17:27;;;;;;;;;;;;;;;24.80;58.97;97917.34;2068862;28;19975;-46
2022/05/24 03:18:28;;;;;;;;;;;;;;;24.82;58.76;97912.44;2069534;28;21060;-47
2022/05/24 03:19:29;;;;;;;;;;;;;;;24.81;58.82;97913.53;2071525;28;19925;-46
2022/05/24 03:20:30;;;;;;;;;;;;;;;24.80;58.58;97914.63;2071781;28;20276;-51
2022/05/24 03:21:31;;;;;;;;;;;;;;;24.80;58.97;97911.91;2071506;28;19998;-48
2022/05/24 03:22:33;;;;;;;;;;;;;;;24.80;58.72;97910.00;2071113;28;19933;-50
2022/05/24 03:23:33;;;;;;;;;;;;;;;24.79;58.88;97915.69;2071709;28;19929;-48
2022/05/24 03:24:35;;;;;;;;;;;;;;;24.80;58.77;97917.34;2068104;28;20054;-50
2022/05/24 03:25:36;;;;;;;;;;;;;;;24.78;58.98;97917.59;2068557;28;20726;-50
2022/05/24 03:26:37;;;;;;;;;;;;;;;24.81;58.80;97921.66;2071175;28;19940;-50
2022/05/24 03:27:38;;;;;;;;;;;;;;;24.80;59.17;97909.19;2071248;28;20051;-45
2022/05/24 03:28:40;;;;;;;;;;;;;;;24.80;58.81;97917.34;2071667;28;19926;-47
2022/05/24 03:29:41;;;;;;;;;;;;;;;24.78;58.95;97909.44;2072514;28;19930;-48
2022/05/24 03:30:43;;;;;;;;;;;;;;;24.79;58.79;97910.25;2069923;28;19971;-48
2022/05/24 03:31:45;;;;;;;;;;;;;;;24.80;58.71;97909.19;2071708;28;19968;-47
2022/05/24 03:32:49;;;;;;;;;;;;;;;24.79;58.89;97915.69;2069255;28;19968;-46
2022/05/24 03:33:50;;;;;;;;;;;;;;;24.78;58.67;97917.59;2071576;28;19972;-48
2022/05/24 03:34:51;;;;;;;;;;;;;;;24.79;58.76;97919.22;2070345;28;20277;-51
2022/05/24 03:35:52;;;;;;;;;;;;;;;24.79;58.75;97910.25;2070716;28;19937;-49
2022/05/24 03:36:54;;;;;;;;;;;;;;;24.79;58.66;97921.09;2072702;28;20656;-47
2022/05/24 03:37:54;;;;;;;;;;;;;;;24.78;58.82;97904.03;2069479;28;20315;-51
2022/05/24 03:38:56;;;;;;;;;;;;;;;24.79;58.94;97910.25;2071968;28;19929;-45
2022/05/24 03:39:56;;;;;;;;;;;;;;;24.78;58.94;97906.72;2070114;28;20323;-48
2022/05/24 03:40:58;;;;;;;;;;;;;;;24.79;59.13;97907.53;2072118;28;19925;-45
2022/05/24 03:41:58;;;;;;;;;;;;;;;24.79;58.94;97907.53;2072284;28;20359;-48
2022/05/24 03:43:01;;;;;;;;;;;;;;;24.79;58.84;97907.53;2070992;28;19935;-46
2022/05/24 03:44:03;;;;;;;;;;;;;;;24.78;58.73;97903.22;2069903;28;19937;-48
2022/05/24 03:45:04;;;;;;;;;;;;;;;24.78;58.56;97909.44;2068525;28;19961;-51
2022/05/24 03:46:10;;;;;;;;;;;;;;;24.78;58.76;97906.72;2068169;28;19936;-51
2022/05/24 03:47:12;;;;;;;;;;;;;;;24.77;58.87;97907.81;2068408;28;19930;-45
2022/05/24 03:48:14;;;;;;;;;;;;;;;24.77;58.83;97905.13;2070473;28;19948;-49
2022/05/24 03:49:16;;;;;;;;;;;;;;;24.76;58.80;97903.47;2070421;28;19975;-47
2022/05/24 03:50:17;;;;;;;;;;;;;;;24.75;59.24;97910.78;2071954;28;20021;-51
2022/05/24 03:51:18;;;;;;;;;;;;;;;24.75;58.77;97904.56;2070939;28;19929;-47
2022/05/24 03:52:19;;;;;;;;;;;;;;;24.77;58.83;97906.97;2070488;28;19932;-48
2022/05/24 03:53:20;;;;;;;;;;;;;;;24.75;58.83;97913.50;2071878;28;20647;-48
2022/05/24 03:54:21;;;;;;;;;;;;;;;24.75;59.06;97909.97;2070783;28;19933;-47
2022/05/24 03:55:23;;;;;;;;;;;;;;;24.77;58.59;97904.28;2072008;28;19961;-47
2022/05/24 03:56:24;;;;;;;;;;;;;;;24.77;58.68;97909.69;2072382;28;20036;-50
2022/05/24 03:58:44;;;;;;;;;;;;;;;24.75;58.91;97913.50;2070219;28;19965;-50
2022/05/24 03:59:45;;;;;;;;;;;;;;;24.75;58.75;97916.22;2068734;28;19940;-49
2022/05/24 04:00:47;;;;;;;;;;;;;;;24.75;59.05;97913.50;2072247;28;19955;-50
2022/05/24 04:01:47;;;;;;;;;;;;;;;24.75;58.98;97913.50;2068287;28;19934;-47
2022/05/24 04:02:50;;;;;;;;;;;;;;;24.74;58.61;97911.88;2072234;28;19934;-47
2022/05/24 04:03:52;;;;;;;;;;;;;;;24.73;59.11;97915.66;2071897;28;19937;-47
2022/05/24 04:04:52;;;;;;;;;;;;;;;24.77;58.86;97915.13;2072738;28;20390;-50
2022/05/24 04:05:54;;;;;;;;;;;;;;;24.77;58.92;97905.13;2069193;28;19936;-49
2022/05/24 04:06:54;;;;;;;;;;;;;;;24.77;58.60;97912.41;2068254;28;20286;-47
2022/05/24 04:07:56;;;;;;;;;;;;;;;24.74;58.76;97903.75;2063320;28;19933;-51
2022/05/24 04:08:57;;;;;;;;;;;;;;;24.74;58.66;97914.59;2070030;28;20600;-52
2022/05/24 04:09:58;;;;;;;;;;;;;;;24.74;58.94;97913.78;2070149;28;19929;-50
2022/05/24 04:11:01;;;;;;;;;;;;;;;24.75;58.76;97908.06;2071815;28;19932;-47
2022/05/24 04:12:02;;;;;;;;;;;;;;;24.78;58.81;97919.47;2071710;28;19957;-47
2022/05/24 04:13:04;;;;;;;;;;;;;;;24.77;59.00;97915.13;2073568;28;19933;-46
2022/05/24 04:14:05;;;;;;;;;;;;;;;24.77;58.67;97917.84;2071272;28;20291;-49
2022/05/24 04:15:07;;;;;;;;;;;;;;;24.74;58.70;97911.88;2071294;28;19979;-49
2022/05/24 04:16:09;;;;;;;;;;;;;;;24.75;58.81;97913.50;2070232;28;19930;-51
2022/05/24 04:17:10;;;;;;;;;;;;;;;24.74;58.82;97908.34;2071971;28;19933;-49
2022/05/24 04:18:13;;;;;;;;;;;;;;;24.74;58.38;97917.28;2070818;28;20401;-48
2022/05/24 04:19:13;;;;;;;;;;;;;;;24.73;58.93;97915.66;2073462;28;20013;-49
2022/05/24 04:20:16;;;;;;;;;;;;;;;24.72;58.84;97914.03;2072890;28;19929;-49
2022/05/24 04:21:16;;;;;;;;;;;;;;;24.73;58.57;97915.66;2073388;28;19929;-49
2022/05/24 04:22:18;;;;;;;;;;;;;;;24.75;58.69;97918.09;2072353;28;20462;-48
2022/05/24 04:23:21;;;;;;;;;;;;;;;24.73;58.70;97921.06;2073699;28;19936;-47
2022/05/24 04:24:22;;;;;;;;;;;;;;;24.75;58.65;97926.25;2073332;28;19937;-51
2022/05/24 04:25:23;;;;;;;;;;;;;;;24.74;58.96;97927.34;2072926;28;20330;-49
2022/05/24 04:26:24;;;;;;;;;;;;;;;24.73;58.91;97931.91;2071563;28;20406;-48
2022/05/24 04:27:25;;;;;;;;;;;;;;;24.73;58.82;97937.34;2073113;28;19939;-49
2022/05/24 04:28:27;;;;;;;;;;;;;;;24.74;58.46;97932.75;2070052;28;19976;-50
2022/05/24 04:29:27;;;;;;;;;;;;;;;24.73;58.82;97931.09;2070867;28;19933;-47
2022/05/24 04:30:29;;;;;;;;;;;;;;;24.75;58.78;97935.19;2071432;28;19929;-49
2022/05/24 04:31:31;;;;;;;;;;;;;;;24.73;59.01;97931.09;2070450;28;20310;-49
2022/05/24 04:32:31;;;;;;;;;;;;;;;24.73;58.86;97937.34;2072911;28;19929;-47
2022/05/24 04:33:34;;;;;;;;;;;;;;;24.73;59.01;97936.53;2071199;28;20818;-48
2022/05/24 04:34:36;;;;;;;;;;;;;;;24.74;58.67;97938.19;2073252;28;19929;-45
2022/05/24 04:35:37;;;;;;;;;;;;;;;24.73;59.10;97936.53;2069220;28;19960;-51
2022/05/24 04:36:38;;;;;;;;;;;;;;;24.71;58.73;97934.09;2069438;28;19934;-51
2022/05/24 04:37:39;;;;;;;;;;;;;;;24.72;59.31;97933.00;2071804;28;20131;-48
2022/05/24 04:38:40;;;;;;;;;;;;;;;24.74;59.34;97946.31;2070428;28;19929;-48
2022/05/24 04:39:42;;;;;;;;;;;;;;;24.72;59.55;97940.31;2072302;28;20093;-45
2022/05/24 04:42:19;;;;;;;;;;;;;;;24.72;59.38;97949.28;2072400;28;19926;-49
2022/05/24 04:43:22;;;;;;;;;;;;;;;24.73;59.49;97950.91;2069036;28;19929;-48
2022/05/24 04:44:22;;;;;;;;;;;;;;;24.72;59.90;97960.13;2071302;28;20395;-51
2022/05/24 04:45:24;;;;;;;;;;;;;;;24.74;59.54;97955.25;2069996;28;19933;-47
2022/05/24 04:46:24;;;;;;;;;;;;;;;24.75;59.45;97961.50;2073957;28;19961;-50
2022/05/24 04:47:28;;;;;;;;;;;;;;;24.73;59.63;97959.03;2071113;28;20402;-46
2022/05/24 04:48:28;;;;;;;;;;;;;;;24.72;59.36;97960.13;2072571;28;20435;-48
2022/05/24 04:49:32;;;;;;;;;;;;;;;24.73;59.42;97969.88;2073023;28;19958;-47
2022/05/24 04:50:32;;;;;;;;;;;;;;;24.71;59.72;97955.78;2070495;28;19980;-47
2022/05/24 04:51:34;;;;;;;;;;;;;;;24.70;59.88;97959.56;2070218;28;19934;-46
2022/05/24 04:52:35;;;;;;;;;;;;;;;24.70;59.88;97964.97;2071056;28;19925;-47
2022/05/24 04:53:37;;;;;;;;;;;;;;;24.70;59.67;97958.75;2069572;28;19929;-48
2022/05/24 04:54:38;;;;;;;;;;;;;;;24.72;59.67;97962.84;2067729;28;19948;-48
2022/05/24 04:55:39;;;;;;;;;;;;;;;24.70;59.96;97964.97;2068752;28;19929;-47
2022/05/24 04:56:40;;;;;;;;;;;;;;;24.72;59.79;97967.44;2069330;28;19933;-50
2022/05/24 04:57:43;;;;;;;;;;;;;;;24.73;59.54;97969.06;2072291;28;20551;-48
2022/05/24 04:58:43;;;;;;;;;;;;;;;24.74;59.34;97962.59;2059664;28;21258;-47
2022/05/24 04:59:46;;;;;;;;;;;;;;;24.72;59.50;97962.84;2070035;28;19940;-47
2022/05/24 05:00:47;;;;;;;;;;;;;;;24.73;59.80;97967.16;2069700;28;19941;-49
2022/05/24 05:01:51;;;;;;;;;;;;;;;24.71;59.87;97965.78;2070003;28;19935;-46
2022/05/24 05:02:53;;;;;;;;;;;;;;;24.72;60.02;97968.25;2072058;28;19928;-47
2022/05/24 05:03:53;;;;;;;;;;;;;;;24.71;59.97;97966.63;2072501;28;19932;-47
2022/05/24 05:04:56;;;;;;;;;;;;;;;24.70;59.95;97973.13;2070493;28;19968;-48
2022/05/24 05:05:57;;;;;;;;;;;;;;;24.71;59.98;97965.78;2072222;28;19936;-46
2022/05/24 05:06:58;;;;;;;;;;;;;;;24.72;59.83;97965.53;2071578;28;20008;-50
2022/05/24 05:08:00;;;;;;;;;;;;;;;24.71;60.00;97963.91;2072268;28;19930;-50
2022/05/24 05:09:00;;;;;;;;;;;;;;;24.72;59.81;97970.97;2071713;28;19929;-47
2022/05/24 05:10:02;;;;;;;;;;;;;;;24.72;59.88;97972.88;2072077;28;19930;-51
2022/05/24 05:11:03;;;;;;;;;;;;;;;24.72;59.74;97973.69;2071100;28;19929;-49
2022/05/24 05:12:05;;;;;;;;;;;;;;;24.72;59.83;97976.41;2071042;28;19940;-47
2022/05/24 05:13:07;;;;;;;;;;;;;;;24.73;59.74;97975.31;2069601;28;19944;-50
2022/05/24 05:14:08;;;;;;;;;;;;;;;24.74;59.71;97982.38;2068554;28;19944;-51
2022/05/24 05:15:10;;;;;;;;;;;;;;;24.73;59.84;97979.91;2068241;28;19929;-47
2022/05/24 05:16:10;;;;;;;;;;;;;;;24.73;59.73;97979.91;2070589;28;19940;-46
2022/05/24 05:17:12;;;;;;;;;;;;;;;24.72;59.89;97979.09;2071476;28;19933;-47
2022/05/24 05:18:14;;;;;;;;;;;;;;;24.73;59.81;97985.34;2072171;28;20047;-47
2022/05/24 05:19:16;;;;;;;;;;;;;;;24.73;59.89;97983.44;2069130;28;19929;-48
2022/05/24 05:20:19;;;;;;;;;;;;;;;24.72;59.83;97979.09;2065560;28;19933;-49
2022/05/24 05:21:19;;;;;;;;;;;;;;;24.71;60.21;97976.63;2065975;28;20051;-45
2022/05/24 05:22:22;;;;;;;;;;;;;;;24.69;60.14;97974.19;2070975;28;20671;-50
2022/05/24 05:23:22;;;;;;;;;;;;;;;24.71;59.97;97980.19;2070746;28;19976;-50
2022/05/24 05:24:24;;;;;;;;;;;;;;;24.72;60.00;97976.41;2065786;28;20507;-47
2022/05/24 05:25:24;;;;;;;;;;;;;;;24.71;60.14;97982.06;2069749;28;19979;-46
2022/05/24 05:26:26;;;;;;;;;;;;;;;24.70;59.92;97978.53;2066055;28;20392;-47
2022/05/24 05:27:27;;;;;;;;;;;;;;;24.71;59.91;97982.91;2065497;28;19971;-46
2022/05/24 05:28:28;;;;;;;;;;;;;;;24.72;59.94;97975.59;2069509;28;19984;-49
2022/05/24 05:32:08;;;;;;;;;;;;;;;24.72;59.73;97973.69;2072675;28;19933;-47
2022/05/24 05:33:08;;;;;;;;;;;;;;;24.71;60.02;97965.78;2070268;28;19929;-46
2022/05/24 05:34:10;;;;;;;;;;;;;;;24.70;60.22;97966.88;2071445;28;19933;-47
2022/05/24 05:35:10;;;;;;;;;;;;;;;24.70;59.89;97975.00;2072202;28;20279;-46
2022/05/24 05:36:13;;;;;;;;;;;;;;;24.71;60.17;97977.47;2072780;28;19941;-47
2022/05/24 05:37:14;;;;;;;;;;;;;;;24.67;60.22;97975.53;2069521;28;20426;-47
2022/05/24 05:38:16;;;;;;;;;;;;;;;24.63;60.34;97975.25;2068179;28;19972;-47
2022/05/24 05:39:16;;;;;;;;;;;;;;;24.61;60.39;97980.09;2068854;28;19933;-48
2022/05/24 05:40:18;;;;;;;;;;;;;;;24.61;60.58;97982.00;2070072;28;20039;-48
2022/05/24 05:41:19;;;;;;;;;;;;;;;24.60;60.55;97978.47;2071720;28;20518;-46
2022/05/24 05:42:20;;;;;;;;;;;;;;;24.60;60.71;97978.47;2070933;28;19925;-47